New Braunfels, TX (78132)

2:55 AM CST on March 04, 2015 (GMT -0600)
Oakwood Estates | Change Station
CLOSE
Current Station
Personal Weather Station
Location: New Braunfels, TX
Elevation: 758 ft
Nearby Weather Stations

Elev 758 ft 29.72 °N, 98.14 °W | Updated 29 seconds ago

Fog
Fog
60.0 °F
Feels Like 60.0 °F
N
0.0
Wind Variable Wind from SSW
Gusts 0.0 mph

Today
High -- | Low -- °F
--% Chance of Precip.
Yesterday
High -- | Low -- °F
Precip. -- in
6:55 AM 6:33 PM
Waxing Gibbous, 98% visible
Pressure 29.81 in
Visibility 0.2 miles
Clouds Mostly Cloudy 400 ft
Overcast 1700 ft
Dew Point 60 °F
Humidity 99%
Rainfall 0.00 in
Snow Depth Not available.
UV 0 out of 12
Pollen 8.90 out of 12
Air Quality Not available.
Flu Activity Not available.
METAR KBAZ 040851Z AUTO 00000KT 1/4SM FG BKN004 OVC017 15/14 A2981 RMK AO2 SLP092 T01500139 56013

More Conditions Fewer Conditions

Pressure 29.81 in
Visibility 0.2 miles
Clouds Mostly Cloudy 400 ft
Overcast 1700 ft
Dew Point 60 °F
Humidity 99%
Rainfall 0.00 in
Snow Depth Not available.
UV 0 out of 12
Pollen 8.90 out of 12
Air Quality Not available.
Flu Activity Not available.
METAR KBAZ 040851Z AUTO 00000KT 1/4SM FG BKN004 OVC017 15/14 A2981 RMK AO2 SLP092 T01500139 56013

More Conditions Fewer Conditions

10-Day Weather Forecast

Almanac

Astronomy

Mar. 04, 2015 Rise Set
Actual Time
Civil Twilight
Nautical Twilight
Astronomical Twilight
Moon
Length of Visible Light
Length of Day
Tomorrow will be .
, % of the Moon is Illuminated

Today's Extremes

State Highs State Lows

Community

WunderPhotos

Upload Photos

1,802,416 photos uploaded!

WunderBlogs® & News

Nearby

Air Quality

  Air Quality AQ Index Pollutant
Not available.

Snow Depth

Station Depth Elevation

Earthquake Activity

City Distance Mag. Time & Date
Minimum magnitude displayed is 2.5.

Coastal Water Temperatures

Place Temperature

Nearby Weather Stations